Time;durP1;ratioP1;P1;durP2;ratioP2;P2;SDS_P1;SDS_P2;PMS_P1;PMS_P2;Temp;Humidity;BMP_temperature;BMP_pressure;BME280_temperature;BME280_humidity;BME280_pressure;Samples;Min_cycle;Max_cycle;Signal;HPM_P1;HPM_P2
2022/05/19 00:01:01;;;;;;;3.00;2.55;;;24.40;1.00;;;;;;5013277;28;20061;-51
2022/05/19 00:03:28;;;;;;;4.50;2.65;;;24.20;1.00;;;;;;5008498;28;20037;-59
2022/05/19 00:05:55;;;;;;;4.72;2.92;;;24.30;1.00;;;;;;5009709;28;20097;-52
2022/05/19 00:08:21;;;;;;;3.83;2.40;;;24.10;1.00;;;;;;5010007;28;20103;-51
2022/05/19 00:10:47;;;;;;;5.68;3.10;;;24.20;1.00;;;;;;5010918;28;20022;-52
2022/05/19 00:13:13;;;;;;;3.13;2.45;;;24.10;1.00;;;;;;5010343;28;20422;-51
2022/05/19 00:15:39;;;;;;;5.40;2.42;;;24.10;1.00;;;;;;5012873;28;20041;-53
2022/05/19 00:18:05;;;;;;;6.03;3.00;;;24.10;1.00;;;;;;5008692;28;20061;-51
2022/05/19 00:20:30;;;;;;;6.72;2.65;;;23.90;1.00;;;;;;5010805;28;20066;-52
2022/05/19 00:22:56;;;;;;;5.40;2.80;;;23.90;1.00;;;;;;5008104;28;20064;-51
2022/05/19 00:25:22;;;;;;;4.95;2.47;;;23.90;1.00;;;;;;5011068;28;20018;-49
2022/05/19 00:27:48;;;;;;;4.03;2.88;;;23.90;1.00;;;;;;5011954;28;20471;-52
2022/05/19 00:30:14;;;;;;;2.50;2.30;;;23.80;1.00;;;;;;5009802;28;20026;-53
2022/05/19 00:32:39;;;;;;;6.25;3.10;;;23.90;1.00;;;;;;5010077;28;20076;-53
2022/05/19 00:35:05;;;;;;;6.10;2.40;;;23.90;1.00;;;;;;5013003;28;20136;-51
2022/05/19 00:37:31;;;;;;;6.57;3.03;;;23.90;1.00;;;;;;5009526;28;20014;-52
2022/05/19 00:39:57;;;;;;;5.60;2.45;;;23.70;1.00;;;;;;5008964;28;20476;-50
2022/05/19 00:45:07;;;;;;;4.57;2.25;;;23.70;1.00;;;;;;5012264;28;20048;-55
2022/05/19 00:47:40;;;;;;;3.65;2.60;;;23.80;1.00;;;;;;5010310;28;20065;-52
2022/05/19 00:50:12;;;;;;;6.82;2.60;;;23.90;1.00;;;;;;5009038;28;20025;-52
2022/05/19 00:52:41;;;;;;;5.47;2.20;;;23.70;1.00;;;;;;5009395;28;20083;-51
2022/05/19 00:55:21;;;;;;;3.20;2.13;;;23.70;1.00;;;;;;5006712;28;20443;-52
2022/05/19 00:58:17;;;;;;;11.30;2.88;;;23.60;1.00;;;;;;5010070;28;20026;-53
2022/05/19 01:00:45;;;;;;;3.10;2.63;;;23.80;1.00;;;;;;4999098;28;20088;-54
2022/05/19 01:03:14;;;;;;;5.30;2.30;;;23.90;1.00;;;;;;5010200;28;20108;-51
2022/05/19 01:05:53;;;;;;;5.40;2.40;;;23.80;1.00;;;;;;5010004;28;20030;-54
2022/05/19 01:08:32;;;;;;;4.20;2.05;;;23.80;1.00;;;;;;5009549;28;20022;-56
2022/05/19 01:10:59;;;;;;;4.72;2.40;;;23.70;1.00;;;;;;5009274;28;20022;-54
2022/05/19 01:13:30;;;;;;;5.55;2.28;;;23.70;1.00;;;;;;5010335;28;20124;-53
2022/05/19 01:15:56;;;;;;;3.25;2.17;;;23.80;1.00;;;;;;5007909;28;20109;-55
2022/05/19 01:18:25;;;;;;;5.18;2.58;;;23.80;1.00;;;;;;5002445;28;20033;-54
2022/05/19 01:20:51;;;;;;;3.78;2.47;;;23.80;1.00;;;;;;4999615;28;20033;-51
2022/05/19 01:23:32;;;;;;;3.53;1.70;;;23.80;1.00;;;;;;5010308;28;20029;-53
2022/05/19 01:26:25;;;;;;;3.22;2.00;;;23.80;1.00;;;;;;5009170;28;20034;-51
2022/05/19 01:28:51;;;;;;;4.13;2.10;;;23.70;1.00;;;;;;5006562;28;20088;-49
2022/05/19 01:31:35;;;;;;;3.05;2.00;;;23.80;1.00;;;;;;5009455;28;20022;-50
2022/05/19 01:34:03;;;;;;;5.75;2.17;;;23.70;1.00;;;;;;5006373;28;20133;-49
2022/05/19 01:36:30;;;;;;;4.47;2.35;;;23.60;1.00;;;;;;5007025;28;20034;-54
2022/05/19 01:39:03;;;;;;;2.38;1.90;;;23.60;1.00;;;;;;5009050;28;20030;-52
2022/05/19 01:41:56;;;;;;;6.70;2.00;;;23.80;1.00;;;;;;4991522;28;20029;-52
2022/05/19 01:44:55;;;;;;;4.57;2.30;;;23.70;1.00;;;;;;5012348;28;20033;-52
2022/05/19 01:47:20;;;;;;;4.78;2.10;;;23.60;1.00;;;;;;5005352;28;20026;-52
2022/05/19 01:49:49;;;;;;;4.32;2.20;;;23.60;1.00;;;;;;5010229;28;20034;-52
2022/05/19 01:52:33;;;;;;;2.50;2.10;;;23.60;1.00;;;;;;5009206;28;20037;-51
2022/05/19 01:55:09;;;;;;;2.67;1.58;;;23.70;1.00;;;;;;5007421;28;20057;-53
2022/05/19 01:57:41;;;;;;;6.47;2.03;;;23.60;1.00;;;;;;5008488;28;20034;-53
2022/05/19 02:00:12;;;;;;;4.80;2.13;;;23.70;1.00;;;;;;5009212;28;20034;-55
2022/05/19 02:03:05;;;;;;;4.07;1.70;;;23.80;1.00;;;;;;5008353;28;20022;-50
2022/05/19 02:06:01;;;;;;;4.60;1.95;;;23.80;1.00;;;;;;5010223;28;20053;-50
2022/05/19 02:08:31;;;;;;;4.93;1.90;;;23.80;1.00;;;;;;4996058;28;20504;-48
2022/05/19 02:11:02;;;;;;;4.20;1.95;;;23.70;1.00;;;;;;5005107;28;20029;-48
2022/05/19 02:13:29;;;;;;;4.03;1.90;;;23.60;1.00;;;;;;5009719;28;20058;-51
2022/05/19 02:15:55;;;;;;;4.53;1.85;;;23.60;1.00;;;;;;5006138;28;20057;-51
2022/05/19 02:18:25;;;;;;;6.35;1.77;;;23.60;1.00;;;;;;5010072;28;20480;-52
2022/05/19 02:20:53;;;;;;;4.72;1.95;;;23.60;1.00;;;;;;5008514;28;20037;-55
2022/05/19 02:23:19;;;;;;;3.65;1.70;;;23.60;1.00;;;;;;5010322;28;20030;-54
2022/05/19 02:25:55;;;;;;;1.75;1.48;;;23.70;1.00;;;;;;5009090;28;20598;-53
2022/05/19 02:28:26;;;;;;;2.97;1.70;;;23.60;1.00;;;;;;5008765;28;20084;-56
2022/05/19 02:30:51;;;;;;;2.85;1.85;;;23.60;1.00;;;;;;5008341;28;20025;-55
2022/05/19 02:33:18;;;;;;;6.72;2.10;;;23.70;1.00;;;;;;5007027;28;20372;-54
2022/05/19 02:35:44;;;;;;;4.85;2.20;;;23.60;1.00;;;;;;5008670;28;20037;-54
2022/05/19 02:38:11;;;;;;;4.38;1.88;;;23.60;1.00;;;;;;5005331;28;20022;-53
2022/05/19 02:40:38;;;;;;;3.80;1.95;;;23.70;1.00;;;;;;5010556;28;20022;-54
2022/05/19 02:43:05;;;;;;;5.45;1.80;;;23.70;1.00;;;;;;5010786;28;20491;-55
2022/05/19 02:45:31;;;;;;;5.60;1.77;;;23.60;1.00;;;;;;5011297;28;20064;-57
2022/05/19 02:47:58;;;;;;;3.40;1.90;;;23.60;1.00;;;;;;5009655;28;20061;-55
2022/05/19 02:50:24;;;;;;;3.17;1.67;;;23.60;1.00;;;;;;5010706;28;20030;-52
2022/05/19 02:52:50;;;;;;;5.97;1.92;;;23.60;1.00;;;;;;5011234;28;20040;-49
2022/05/19 02:55:17;;;;;;;2.10;1.90;;;23.60;1.00;;;;;;5012823;28;20426;-46
2022/05/19 02:57:43;;;;;;;3.85;2.08;;;23.70;1.00;;;;;;5011820;28;20084;-51
2022/05/19 03:00:12;;;;;;;7.07;2.30;;;23.70;1.00;;;;;;5010862;28;20391;-53
2022/05/19 03:02:39;;;;;;;3.42;1.90;;;23.70;1.00;;;;;;5009895;28;20033;-51
2022/05/19 03:05:05;;;;;;;2.25;1.58;;;23.70;1.00;;;;;;5012587;28;20048;-51
2022/05/19 03:07:30;;;;;;;2.97;1.90;;;23.60;1.00;;;;;;5010212;28;20022;-53
2022/05/19 03:09:56;;;;;;;2.80;2.05;;;23.60;1.00;;;;;;5013222;28;20423;-54
2022/05/19 03:12:22;;;;;;;6.97;2.20;;;23.60;1.00;;;;;;5012807;28;20044;-54
2022/05/19 03:14:47;;;;;;;5.57;2.20;;;23.50;1.00;;;;;;5006866;28;20146;-52
2022/05/19 03:17:13;;;;;;;2.00;1.65;;;23.60;1.00;;;;;;5009693;28;20467;-52
2022/05/19 03:19:39;;;;;;;3.65;1.80;;;23.50;1.00;;;;;;5013088;28;20531;-54
2022/05/19 03:22:06;;;;;;;7.30;1.85;;;23.60;1.00;;;;;;5011613;28;20038;-53
2022/05/19 03:24:32;;;;;;;2.28;1.70;;;23.60;1.00;;;;;;5015401;28;20022;-55
2022/05/19 03:26:58;;;;;;;3.15;1.73;;;23.60;1.00;;;;;;5008853;28;20479;-51
2022/05/19 03:29:24;;;;;;;6.25;2.13;;;23.50;1.00;;;;;;5006600;28;20036;-51
2022/05/19 03:31:50;;;;;;;4.22;1.75;;;23.60;1.00;;;;;;5008398;28;20420;-52
2022/05/19 03:34:18;;;;;;;5.18;2.10;;;23.50;1.00;;;;;;5012575;28;20050;-54
2022/05/19 03:36:45;;;;;;;3.33;1.83;;;23.50;1.00;;;;;;5006902;28;20399;-54
2022/05/19 03:39:10;;;;;;;2.75;1.73;;;23.40;1.00;;;;;;5010937;28;20031;-51
2022/05/19 03:41:36;;;;;;;3.83;1.85;;;23.50;1.00;;;;;;5011095;28;20064;-48
2022/05/19 03:44:03;;;;;;;5.20;2.35;;;23.40;1.00;;;;;;4996599;28;20030;-54
2022/05/19 03:46:28;;;;;;;5.38;1.95;;;23.50;1.00;;;;;;5010735;28;20030;-55
2022/05/19 03:48:54;;;;;;;2.22;2.00;;;23.50;1.00;;;;;;5014331;28;20018;-53
2022/05/19 03:51:23;;;;;;;3.55;2.10;;;23.50;1.00;;;;;;5003327;28;20584;-54
2022/05/19 03:53:50;;;;;;;4.43;2.58;;;23.50;1.00;;;;;;5011338;28;20052;-52
2022/05/19 03:56:17;;;;;;;3.13;1.67;;;23.50;1.00;;;;;;5009019;28;20395;-52
2022/05/19 03:58:43;;;;;;;4.68;2.10;;;23.40;1.00;;;;;;5012274;28;20432;-54
2022/05/19 04:01:08;;;;;;;3.70;1.85;;;23.40;1.00;;;;;;5008078;28;20057;-51
2022/05/19 04:03:34;;;;;;;3.47;2.00;;;23.40;1.00;;;;;;5010094;28;20092;-54
2022/05/19 04:06:00;;;;;;;4.78;2.13;;;23.40;1.00;;;;;;4993550;28;20120;-49
2022/05/19 04:08:25;;;;;;;2.13;1.80;;;23.30;1.00;;;;;;5008044;28;20462;-49
2022/05/19 04:10:51;;;;;;;2.08;1.55;;;23.30;1.00;;;;;;5008547;28;20076;-55
2022/05/19 04:13:16;;;;;;;4.10;2.28;;;23.40;1.00;;;;;;5009740;28;20022;-49
2022/05/19 04:15:42;;;;;;;3.00;2.17;;;23.30;1.00;;;;;;5007744;28;20719;-51
2022/05/19 04:18:08;;;;;;;4.65;1.88;;;23.40;1.00;;;;;;5014284;28;20022;-53
2022/05/19 04:20:33;;;;;;;2.30;1.90;;;23.40;1.00;;;;;;5007538;28;20037;-50
2022/05/19 04:23:01;;;;;;;6.50;1.88;;;23.30;1.00;;;;;;5008633;28;20040;-54
2022/05/19 04:25:27;;;;;;;5.32;1.95;;;23.30;1.00;;;;;;5010808;28;20112;-55
2022/05/19 04:27:53;;;;;;;7.10;2.00;;;23.20;1.00;;;;;;5014598;28;20041;-55
2022/05/19 04:30:19;;;;;;;3.90;2.17;;;23.10;1.00;;;;;;5010669;28;20025;-55
2022/05/19 04:32:44;;;;;;;3.67;2.38;;;23.20;1.00;;;;;;5009723;28;20041;-50
2022/05/19 04:35:12;;;;;;;5.55;2.00;;;23.10;1.00;;;;;;5006399;28;20041;-52
2022/05/19 04:37:39;;;;;;;2.85;1.60;;;23.10;1.00;;;;;;5009893;28;20014;-48
2022/05/19 04:40:06;;;;;;;3.17;1.70;;;23.10;1.00;;;;;;5007542;28;20136;-49
2022/05/19 04:42:32;;;;;;;4.20;1.85;;;23.10;1.00;;;;;;5010048;28;20022;-50
2022/05/19 04:44:58;;;;;;;5.43;2.05;;;23.10;1.00;;;;;;5008607;28;20751;-50
2022/05/19 04:47:23;;;;;;;4.90;1.60;;;23.00;1.00;;;;;;5006542;28;20084;-49
2022/05/19 04:49:49;;;;;;;3.17;2.10;;;23.10;1.00;;;;;;5010352;28;20026;-51
2022/05/19 04:52:15;;;;;;;3.97;1.48;;;23.20;1.00;;;;;;5008365;28;20034;-50
2022/05/19 04:54:41;;;;;;;3.10;1.75;;;23.20;1.00;;;;;;5010181;28;20569;-52
2022/05/19 04:57:07;;;;;;;3.85;1.73;;;23.10;1.00;;;;;;5009627;28;20423;-49
2022/05/19 04:59:41;;;;;;;4.78;1.85;;;23.10;1.00;;;;;;5012579;28;20124;-56
2022/05/19 05:02:08;;;;;;;3.72;1.88;;;23.10;1.00;;;;;;5007061;28;20022;-52
2022/05/19 05:04:33;;;;;;;7.53;1.83;;;23.10;1.00;;;;;;5009487;28;20025;-53
2022/05/19 05:06:59;;;;;;;2.92;1.60;;;23.20;1.00;;;;;;5008938;28;20033;-53
2022/05/19 05:09:25;;;;;;;4.50;1.88;;;23.10;1.00;;;;;;5009680;28;20072;-55
2022/05/19 05:11:51;;;;;;;3.05;1.85;;;23.00;1.00;;;;;;5009596;28;20379;-48
2022/05/19 05:14:17;;;;;;;3.75;1.83;;;23.00;1.00;;;;;;5009942;28;20041;-53
2022/05/19 05:16:48;;;;;;;7.25;1.98;;;23.10;1.00;;;;;;5011563;28;20022;-51
2022/05/19 05:19:14;;;;;;;5.72;2.10;;;23.00;1.00;;;;;;5007994;28;20109;-48
2022/05/19 05:21:40;;;;;;;3.55;1.80;;;23.10;1.00;;;;;;5007596;28;20117;-53
2022/05/19 05:24:06;;;;;;;2.55;1.73;;;23.00;1.00;;;;;;5008208;28;20113;-50
2022/05/19 05:26:31;;;;;;;3.78;1.65;;;23.00;1.00;;;;;;5008391;28;20100;-52
2022/05/19 05:28:57;;;;;;;4.15;2.17;;;23.10;1.00;;;;;;5011514;28;20471;-49
2022/05/19 05:31:23;;;;;;;4.55;2.10;;;23.00;1.00;;;;;;5006982;28;20037;-54
2022/05/19 05:33:48;;;;;;;4.00;1.95;;;23.00;1.00;;;;;;5009008;28;20029;-51
2022/05/19 05:36:14;;;;;;;5.60;1.85;;;23.10;1.00;;;;;;5007682;28;20398;-53
2022/05/19 05:38:40;;;;;;;4.72;2.38;;;23.00;1.00;;;;;;5010327;28;20415;-53
2022/05/19 05:41:06;;;;;;;3.75;1.70;;;23.00;1.00;;;;;;5006947;28;20111;-54
2022/05/19 05:43:34;;;;;;;5.32;2.13;;;23.00;1.00;;;;;;5009065;28;20483;-50
2022/05/19 05:46:09;;;;;;;4.38;1.67;;;23.10;1.00;;;;;;5007115;28;20484;-49
2022/05/19 05:48:36;;;;;;;5.35;1.77;;;23.00;1.00;;;;;;5008925;28;20029;-52
2022/05/19 05:51:06;;;;;;;4.82;1.63;;;23.20;1.00;;;;;;4998914;28;20033;-54
2022/05/19 05:53:33;;;;;;;3.30;1.70;;;23.10;1.00;;;;;;5005899;28;20030;-51
2022/05/19 05:55:59;;;;;;;2.85;2.15;;;23.00;1.00;;;;;;5006059;28;20033;-53
2022/05/19 05:58:25;;;;;;;3.53;1.70;;;23.10;1.00;;;;;;5008466;28;20030;-53
2022/05/19 06:00:51;;;;;;;4.53;1.80;;;23.10;1.00;;;;;;5008990;28;20053;-55
2022/05/19 06:03:16;;;;;;;7.57;2.28;;;23.00;1.00;;;;;;5006070;28;20103;-49
2022/05/19 06:05:42;;;;;;;2.25;1.60;;;23.20;1.00;;;;;;4997303;28;20045;-54
2022/05/19 06:08:08;;;;;;;4.55;1.92;;;23.10;1.00;;;;;;5010690;28;20030;-51
2022/05/19 06:10:34;;;;;;;7.22;1.92;;;23.10;1.00;;;;;;5009279;28;20033;-53
2022/05/19 06:13:00;;;;;;;5.10;2.00;;;23.20;1.00;;;;;;5008807;28;20041;-48
2022/05/19 06:15:26;;;;;;;3.85;2.17;;;23.20;1.00;;;;;;5011971;28;20042;-49
2022/05/19 06:17:52;;;;;;;3.03;2.10;;;23.30;1.00;;;;;;5015887;28;20364;-51
2022/05/19 06:20:18;;;;;;;3.72;1.92;;;23.30;1.00;;;;;;5015877;28;20026;-55
2022/05/19 06:22:46;;;;;;;4.97;1.67;;;23.30;1.00;;;;;;5016852;28;20068;-52
2022/05/19 06:25:15;;;;;;;6.68;1.80;;;23.30;1.00;;;;;;5015521;28;20105;-53
2022/05/19 06:27:41;;;;;;;7.25;2.20;;;23.40;1.00;;;;;;5016419;28;20121;-51
2022/05/19 06:30:08;;;;;;;5.65;2.30;;;23.30;1.00;;;;;;5015755;28;20026;-50
2022/05/19 06:32:35;;;;;;;4.88;1.75;;;23.40;1.00;;;;;;5016059;28;20522;-49
2022/05/19 06:35:01;;;;;;;2.28;1.58;;;23.40;1.00;;;;;;5014262;28;20434;-51
2022/05/19 06:37:26;;;;;;;4.32;1.83;;;23.50;1.00;;;;;;5016247;28;20026;-53
2022/05/19 06:39:52;;;;;;;3.78;1.88;;;23.50;1.00;;;;;;5015071;28;20033;-50
2022/05/19 06:42:17;;;;;;;3.30;1.50;;;23.50;1.00;;;;;;5014705;28;20022;-49
2022/05/19 06:44:44;;;;;;;4.90;1.70;;;23.50;1.00;;;;;;5014011;28;20475;-50
2022/05/19 06:47:14;;;;;;;2.90;1.65;;;23.50;1.00;;;;;;5013721;28;20030;-52
2022/05/19 06:49:44;;;;;;;6.10;2.03;;;23.50;1.00;;;;;;5012669;28;20176;-51
2022/05/19 06:52:16;;;;;;;5.45;1.90;;;23.60;1.00;;;;;;5013337;28;20048;-51
2022/05/19 06:54:46;;;;;;;7.30;1.77;;;23.60;1.00;;;;;;5010981;28;20402;-54
2022/05/19 06:57:12;;;;;;;4.70;1.50;;;23.60;1.00;;;;;;5013831;28;20606;-53
2022/05/19 06:59:38;;;;;;;6.65;1.85;;;23.60;1.00;;;;;;5012934;28;20104;-49
2022/05/19 07:02:05;;;;;;;6.55;1.75;;;23.50;1.00;;;;;;5016092;28;20030;-52
2022/05/19 07:04:32;;;;;;;5.93;1.92;;;23.60;1.00;;;;;;5011763;28;20557;-48
2022/05/19 07:06:58;;;;;;;3.83;1.70;;;23.60;1.00;;;;;;5012272;28;20080;-49
2022/05/19 07:09:24;;;;;;;5.00;2.00;;;23.70;1.00;;;;;;5014791;28;20038;-47
2022/05/19 07:11:49;;;;;;;4.32;2.17;;;23.70;1.00;;;;;;5014539;28;20022;-47
2022/05/19 07:14:15;;;;;;;4.75;1.60;;;23.70;1.00;;;;;;5014028;28;20077;-46
2022/05/19 07:16:44;;;;;;;8.95;1.88;;;23.80;1.00;;;;;;5014324;28;20068;-49
2022/05/19 07:21:55;;;;;;;3.42;1.80;;;23.80;1.00;;;;;;5015198;28;20095;-48
2022/05/19 07:24:22;;;;;;;3.88;1.67;;;23.90;1.00;;;;;;5014209;28;20117;-52
2022/05/19 07:26:54;;;;;;;3.80;2.35;;;23.90;1.00;;;;;;4994741;28;20022;-47
2022/05/19 07:29:21;;;;;;;2.17;1.27;;;24.00;1.00;;;;;;4995762;28;20113;-52
2022/05/19 07:31:47;;;;;;;3.10;1.52;;;23.90;1.00;;;;;;5012657;28;20476;-51
2022/05/19 07:34:16;;;;;;;4.47;1.85;;;24.00;1.00;;;;;;5015072;28;20037;-52
2022/05/19 07:36:42;;;;;;;3.67;1.67;;;24.00;1.00;;;;;;5011967;28;20036;-53
2022/05/19 07:39:09;;;;;;;6.82;2.05;;;24.10;1.00;;;;;;5015209;28;20105;-52
2022/05/19 07:41:34;;;;;;;3.75;1.48;;;24.10;1.00;;;;;;5014085;28;20060;-49
2022/05/19 07:44:00;;;;;;;8.05;1.80;;;24.10;1.00;;;;;;5014775;28;20037;-53
2022/05/19 07:46:27;;;;;;;5.93;1.90;;;24.10;1.00;;;;;;5012488;28;20121;-52
2022/05/19 07:48:54;;;;;;;5.28;2.05;;;24.10;1.00;;;;;;5013897;28;20033;-50
2022/05/19 07:51:22;;;;;;;6.30;2.50;;;24.20;1.00;;;;;;5010740;28;20140;-53
2022/05/19 07:53:48;;;;;;;5.45;2.63;;;24.20;1.00;;;;;;5011758;28;20491;-53
2022/05/19 07:56:14;;;;;;;6.85;2.42;;;24.20;1.00;;;;;;5011798;28;20030;-54
2022/05/19 07:58:40;;;;;;;4.55;2.13;;;24.30;1.00;;;;;;5012396;28;20596;-53
2022/05/19 08:01:07;;;;;;;4.15;1.70;;;24.30;1.00;;;;;;5012818;28;20041;-53
2022/05/19 08:03:34;;;;;;;9.48;3.35;;;24.30;1.00;;;;;;5013059;28;20508;-54
2022/05/19 08:05:59;;;;;;;5.95;2.28;;;24.40;1.00;;;;;;5011590;28;20037;-55
2022/05/19 08:08:25;;;;;;;4.55;1.80;;;24.40;1.00;;;;;;5011533;28;20041;-54
2022/05/19 08:10:57;;;;;;;3.40;1.77;;;24.50;1.00;;;;;;5009520;28;20018;-56
2022/05/19 08:16:14;;;;;;;9.40;2.40;;;24.50;1.00;;;;;;4990010;28;20046;-50
2022/05/19 08:18:40;;;;;;;4.15;1.95;;;24.50;1.00;;;;;;5014371;28;20033;-53
2022/05/19 08:21:09;;;;;;;3.60;2.22;;;24.60;1.00;;;;;;5002200;28;20034;-53
2022/05/19 08:23:42;;;;;;;2.65;1.83;;;24.60;1.00;;;;;;4998169;28;20018;-52
2022/05/19 08:26:09;;;;;;;4.10;1.90;;;24.60;1.00;;;;;;5013479;28;20034;-54
2022/05/19 08:28:36;;;;;;;5.03;2.88;;;24.60;1.00;;;;;;5014179;28;20479;-49
2022/05/19 08:31:14;;;;;;;3.65;2.30;;;24.70;1.00;;;;;;5003286;28;20089;-50
2022/05/19 08:33:42;;;;;;;6.10;2.50;;;24.70;1.00;;;;;;5012132;28;20444;-54
2022/05/19 08:36:08;;;;;;;8.25;2.17;;;24.80;1.00;;;;;;5003520;28;20109;-50
2022/05/19 08:38:35;;;;;;;2.65;1.90;;;24.80;1.00;;;;;;4993823;28;20125;-52
2022/05/19 08:41:07;;;;;;;5.07;2.00;;;24.80;1.00;;;;;;5003023;28;20026;-54
2022/05/19 08:43:42;;;;;;;5.18;1.98;;;24.90;1.00;;;;;;5014038;28;20545;-55
2022/05/19 08:46:14;;;;;;;4.85;1.83;;;24.90;1.00;;;;;;5012947;28;20064;-53
2022/05/19 08:48:40;;;;;;;2.40;1.70;;;25.00;1.00;;;;;;5012820;28;20464;-50
2022/05/19 08:51:07;;;;;;;5.25;2.72;;;25.00;1.00;;;;;;5002660;28;20058;-51
2022/05/19 08:53:36;;;;;;;3.67;1.92;;;25.00;1.00;;;;;;4993846;28;20026;-50
2022/05/19 08:56:24;;;;;;;2.05;1.88;;;25.10;1.00;;;;;;5000790;28;20021;-54
2022/05/19 08:59:23;;;;;;;2.92;1.85;;;25.00;1.00;;;;;;5011987;28;20026;-50
2022/05/19 09:02:03;;;;;;;5.07;2.50;;;25.10;1.00;;;;;;5011111;28;20026;-49
2022/05/19 09:04:38;;;;;;;5.82;3.72;;;25.10;1.00;;;;;;5013148;28;20060;-51
2022/05/19 09:10:51;;;;;;;5.63;2.22;;;25.20;1.00;;;;;;5013810;28;20123;-54
2022/05/19 09:13:30;;;;;;;4.55;2.40;;;25.20;1.00;;;;;;4953530;29;20388;-51
2022/05/19 09:15:55;;;;;;;3.35;1.90;;;25.30;1.00;;;;;;4952291;28;20413;-49
2022/05/19 09:18:34;;;;;;;3.90;2.35;;;25.30;1.00;;;;;;4980771;28;20037;-52
2022/05/19 09:21:02;;;;;;;2.85;2.63;;;25.40;1.00;;;;;;5000590;28;20391;-50
2022/05/19 09:23:27;;;;;;;2.47;2.10;;;25.40;1.00;;;;;;5012532;28;20046;-53
2022/05/19 09:26:04;;;;;;;2.55;1.92;;;25.40;1.00;;;;;;5012250;28;20455;-54
2022/05/19 09:28:30;;;;;;;9.75;2.10;;;25.50;1.00;;;;;;5011410;28;20026;-46
2022/05/19 09:30:57;;;;;;;4.53;2.60;;;25.50;1.00;;;;;;5006228;28;20034;-51
2022/05/19 09:33:33;;;;;;;2.83;2.05;;;25.60;1.00;;;;;;4993169;28;20050;-49
2022/05/19 09:36:00;;;;;;;4.10;2.80;;;25.70;1.00;;;;;;4999069;28;20045;-48
2022/05/19 09:38:31;;;;;;;3.95;2.35;;;25.70;1.00;;;;;;5011814;28;20084;-52
2022/05/19 09:41:18;;;;;;;5.88;2.35;;;25.70;1.00;;;;;;5012017;28;20046;-49
2022/05/19 09:43:51;;;;;;;5.82;2.17;;;25.70;1.00;;;;;;5011093;28;20030;-49
2022/05/19 09:46:17;;;;;;;5.43;2.10;;;25.70;1.00;;;;;;5012334;28;20452;-46
2022/05/19 09:49:04;;;;;;;5.40;2.67;;;25.80;1.00;;;;;;5013200;28;20064;-50
2022/05/19 09:51:44;;;;;;;5.57;2.42;;;25.80;1.00;;;;;;5014718;28;20045;-51
2022/05/19 09:54:13;;;;;;;5.25;3.35;;;25.90;1.00;;;;;;4997282;28;20093;-52
2022/05/19 09:56:52;;;;;;;4.07;2.20;;;25.90;1.00;;;;;;5007687;28;20493;-52
2022/05/19 09:59:21;;;;;;;5.28;2.40;;;26.00;1.00;;;;;;5015322;28;20073;-54
2022/05/19 10:01:49;;;;;;;4.35;2.70;;;26.00;1.00;;;;;;5016017;28;20052;-59
2022/05/19 10:04:39;;;;;;;6.90;2.65;;;26.00;1.00;;;;;;5015315;28;20041;-57
2022/05/19 10:07:29;;;;;;;4.93;2.60;;;26.10;1.00;;;;;;5015589;28;20032;-58
2022/05/19 10:09:57;;;;;;;3.20;2.50;;;26.20;1.00;;;;;;5016095;28;20065;-59
2022/05/19 10:12:28;;;;;;;6.22;2.70;;;26.20;1.00;;;;;;5014748;28;20037;-59
2022/05/19 10:15:08;;;;;;;5.03;2.08;;;26.30;1.00;;;;;;5014725;28;20141;-59
2022/05/19 10:17:55;;;;;;;4.47;2.15;;;26.30;1.00;;;;;;5014852;28;20022;-59
2022/05/19 10:20:29;;;;;;;4.78;2.20;;;26.30;1.00;;;;;;5014386;28;20063;-60
2022/05/19 10:23:16;;;;;;;;;;;26.30;1.00;;;;;;5013791;28;20029;-60
2022/05/19 10:25:45;;;;;;;4.63;2.13;;;26.30;1.00;;;;;;5005721;28;19915;-59
2022/05/19 10:31:28;;;;;;;4.85;2.65;;;26.50;1.00;;;;;;5014730;28;20041;-60
2022/05/19 10:34:30;;;;;;;4.20;2.72;;;26.70;1.00;;;;;;4996514;28;20117;-59
2022/05/19 10:37:27;;;;;;;4.57;2.10;;;26.70;1.00;;;;;;5009231;28;20423;-60
2022/05/19 10:39:55;;;;;;;3.00;2.50;;;26.80;1.00;;;;;;4994965;28;20483;-60
2022/05/19 10:42:25;;;;;;;5.60;3.10;;;26.80;1.00;;;;;;5012299;28;20113;-59
2022/05/19 10:45:17;;;;;;;4.75;2.17;;;27.00;1.00;;;;;;5011421;28;20028;-60
2022/05/19 10:48:15;;;;;;;4.88;2.40;;;26.90;1.00;;;;;;5015305;28;20034;-60
2022/05/19 10:51:02;;;;;;;3.65;2.50;;;27.00;1.00;;;;;;5001297;28;20045;-60
2022/05/19 10:53:39;;;;;;;3.60;2.35;;;27.10;1.00;;;;;;5011553;28;20026;-60
2022/05/19 10:56:38;;;;;;;6.82;2.35;;;27.20;1.00;;;;;;5013489;28;20471;-59
2022/05/19 10:59:40;;;;;;;4.93;2.60;;;27.20;1.00;;;;;;5002708;28;20029;-60
2022/05/19 11:02:21;;;;;;;5.78;2.55;;;27.30;1.00;;;;;;5012084;28;20026;-60
2022/05/19 11:05:27;;;;;;;2.40;2.20;;;27.40;1.00;;;;;;5004555;28;20026;-60
2022/05/19 11:07:56;;;;;;;4.65;2.30;;;27.40;1.00;;;;;;5011896;28;20050;-60
2022/05/19 11:10:26;;;;;;;4.10;2.55;;;27.40;1.00;;;;;;5013040;28;20041;-59
2022/05/19 11:13:22;;;;;;;5.72;2.50;;;27.60;1.00;;;;;;5011429;28;20024;-59
2022/05/19 11:16:12;;;;;;;4.60;2.50;;;27.70;1.00;;;;;;5011897;28;20076;-59
2022/05/19 11:18:56;;;;;;;5.43;2.58;;;27.90;1.00;;;;;;5010166;28;20030;-59
2022/05/19 11:21:35;;;;;;;4.13;2.33;;;28.00;1.00;;;;;;5013006;28;20026;-60
2022/05/19 11:24:01;;;;;;;7.10;3.80;;;28.20;1.00;;;;;;5015443;28;20077;-58
2022/05/19 11:26:45;;;;;;;5.80;3.40;;;28.20;1.00;;;;;;5014348;28;20053;-58
2022/05/19 11:29:34;;;;;;;6.43;2.65;;;28.30;1.00;;;;;;5015566;28;20391;-59
2022/05/19 11:32:18;;;;;;;5.50;3.10;;;28.50;1.00;;;;;;5014134;28;20029;-59
2022/05/19 11:34:52;;;;;;;3.95;2.60;;;28.80;1.00;;;;;;5015334;28;20034;-59
2022/05/19 11:37:41;;;;;;;4.32;2.28;;;29.30;1.00;;;;;;5013048;28;20408;-59
2022/05/19 11:40:45;;;;;;;5.30;3.13;;;29.50;1.00;;;;;;5013135;28;20038;-59
2022/05/19 11:43:32;;;;;;;3.90;2.55;;;29.90;1.00;;;;;;4953889;29;20035;-59
2022/05/19 11:46:10;;;;;;;8.13;3.50;;;30.00;1.00;;;;;;5011986;28;20042;-59
2022/05/19 11:55:14;;;;;;;11.82;3.85;;;30.00;1.00;;;;;;5009968;28;20057;-59
2022/05/19 11:57:53;;;;;;;6.78;4.00;;;30.30;1.00;;;;;;5009495;28;20471;-59
2022/05/19 12:00:29;;;;;;;8.73;3.67;;;30.50;1.00;;;;;;5014794;28;20041;-59
2022/05/19 12:03:02;;;;;;;6.43;2.97;;;30.60;1.00;;;;;;4999565;28;20027;-59
2022/05/19 12:05:33;;;;;;;5.55;3.22;;;30.90;1.00;;;;;;4995823;28;20042;-59
2022/05/19 12:08:26;;;;;;;3.63;2.50;;;31.10;1.00;;;;;;5007646;28;20029;-59
2022/05/19 12:11:07;;;;;;;4.10;3.20;;;31.50;1.00;;;;;;5014517;28;20029;-60
2022/05/19 12:13:35;;;;;;;6.75;2.72;;;31.90;1.00;;;;;;5013435;28;20033;-59
2022/05/19 12:16:13;;;;;;;10.73;3.33;;;32.50;1.00;;;;;;5009068;28;20054;-59
2022/05/19 12:19:04;;;;;;;4.78;3.22;;;32.60;1.00;;;;;;5006754;28;20061;-60
2022/05/19 12:21:39;;;;;;;3.53;3.13;;;32.50;1.00;;;;;;5013435;28;20034;-60
2022/05/19 12:24:11;;;;;;;7.35;3.30;;;32.70;1.00;;;;;;5014476;28;20490;-59
2022/05/19 12:26:59;;;;;;;5.10;2.70;;;32.70;1.00;;;;;;5008835;28;20061;-59
2022/05/19 12:29:31;;;;;;;3.45;3.10;;;32.90;1.00;;;;;;4997878;28;20046;-60
2022/05/19 12:32:07;;;;;;;3.42;3.13;;;32.90;1.00;;;;;;5011854;28;20034;-60
2022/05/19 12:34:42;;;;;;;3.30;3.00;;;33.00;1.00;;;;;;5012938;28;20368;-60
2022/05/19 12:37:38;;;;;;;3.67;3.20;;;33.30;1.00;;;;;;5013113;28;20029;-59
2022/05/19 12:40:25;;;;;;;4.03;2.92;;;32.70;1.00;;;;;;5014312;28;20049;-59
2022/05/19 12:43:10;;;;;;;4.60;3.45;;;32.70;1.00;;;;;;5000031;28;20034;-60
2022/05/19 12:45:45;;;;;;;6.55;3.30;;;33.10;1.00;;;;;;5001310;28;20034;-60
2022/05/19 12:48:11;;;;;;;3.95;3.28;;;33.50;1.00;;;;;;5012317;28;20026;-60
2022/05/19 12:50:44;;;;;;;5.72;3.78;;;33.50;1.00;;;;;;5014019;28;20034;-59
2022/05/19 12:53:21;;;;;;;5.63;3.78;;;34.90;1.00;;;;;;5011923;28;20061;-59
2022/05/19 12:55:56;;;;;;;4.18;3.70;;;35.50;1.00;;;;;;5013929;28;20046;-59
2022/05/19 12:58:37;;;;;;;3.85;3.55;;;34.40;1.00;;;;;;5011962;28;20049;-59
2022/05/19 13:01:26;;;;;;;6.65;3.90;;;33.30;1.00;;;;;;5001524;28;20030;-59
2022/05/19 13:04:16;;;;;;;7.00;3.75;;;33.10;1.00;;;;;;4994504;28;20057;-59
2022/05/19 13:06:59;;;;;;;4.18;3.78;;;33.10;1.00;;;;;;4995922;28;20034;-59
2022/05/19 13:09:31;;;;;;;5.50;3.78;;;34.40;1.00;;;;;;5013048;28;20065;-60
2022/05/19 13:12:19;;;;;;;4.03;3.60;;;34.20;1.00;;;;;;5006232;28;20076;-59
2022/05/19 13:14:53;;;;;;;3.65;3.10;;;33.90;1.00;;;;;;5002365;28;20069;-60
2022/05/19 13:17:39;;;;;;;5.15;3.95;;;34.40;1.00;;;;;;5007372;28;20044;-59
2022/05/19 13:20:19;;;;;;;7.00;4.03;;;34.10;1.00;;;;;;5010653;28;20041;-59
2022/05/19 13:23:00;;;;;;;9.75;4.13;;;34.50;1.00;;;;;;5003458;28;20026;-59
2022/05/19 13:25:27;;;;;;;5.00;4.20;;;34.40;1.00;;;;;;5004116;28;20395;-59
2022/05/19 13:31:02;;;;;;;4.95;3.78;;;34.70;1.00;;;;;;5011990;28;20049;-60
2022/05/19 13:33:37;;;;;;;10.00;3.85;;;34.40;1.00;;;;;;5008289;28;20014;-60
2022/05/19 13:36:07;;;;;;;3.85;3.50;;;34.50;1.00;;;;;;5007638;28;20037;-60
2022/05/19 13:38:33;;;;;;;6.50;3.78;;;34.90;1.00;;;;;;5010538;28;20026;-60
2022/05/19 13:40:59;;;;;;;4.65;3.65;;;35.40;1.00;;;;;;5010668;28;20034;-60
2022/05/19 13:43:37;;;;;;;4.70;3.42;;;35.70;1.00;;;;;;5006027;28;20105;-60
2022/05/19 13:46:16;;;;;;;5.90;3.50;;;35.80;1.00;;;;;;5008512;28;20093;-60